CST,Max TemperatureF,Mean TemperatureF,Min TemperatureF,Max Dew PointF,MeanDew PointF,Min DewpointF,Max Humidity, Mean Humidity, Min Humidity, Max Sea Level PressureIn, Mean Sea Level PressureIn, Min Sea Level PressureIn, Max VisibilityMiles, Mean VisibilityMiles, Min VisibilityMiles, Max Wind SpeedMPH, Mean Wind SpeedMPH, Max Gust SpeedMPH,PrecipitationIn, CloudCover, Events, WindDirDegrees
2013-11-1,59,49,39,39,36,33,85,63,40,30.04,29.82,29.61,10,10,4,35,15,45,0.03,4,Rain,301
2013-11-2,60,46,32,33,29,23,89,57,24,30.19,30.11,30.02,10,10,10,16,9,22,0.00,0,,263
2013-11-3,61,51,41,37,32,28,66,52,37,30.01,29.80,29.66,10,10,10,33,17,44,0.00,0,,160
2013-11-4,55,41,27,37,31,25,85,60,35,30.18,29.98,29.72,10,10,10,26,8,32,T,3,,312
2013-11-5,39,32,25,32,30,23,96,83,70,30.18,30.07,29.96,10,6,1,23,10,29,0.70,7,Rain-Snow,16
2013-11-6,39,33,26,31,28,24,92,81,70,30.29,30.22,30.15,10,10,9,20,7,23,0.00,5,,277
2013-11-7,46,37,28,27,25,20,85,62,39,30.45,30.36,30.23,10,10,10,17,8,21,0.00,0,,269
2013-11-8,56,47,37,38,32,25,76,61,46,30.19,29.89,29.71,10,10,10,28,14,35,0.00,0,,198
2013-11-9,59,47,35,35,31,29,76,58,40,30.38,30.17,29.92,10,10,10,21,10,25,0.00,1,,300
2013-11-10,52,40,27,36,30,24,85,62,39,30.41,30.29,30.13,10,10,10,18,8,23,0.00,2,,195
2013-11-11,42,28,14,36,19,7,92,74,55,30.86,30.48,30.12,10,10,9,30,17,37,T,3,,354
2013-11-12,36,22,7,13,8,3,83,55,27,30.92,30.76,30.50,10,10,10,20,8,26,0.00,0,,220
2013-11-13,59,43,27,33,26,13,73,53,33,30.47,30.17,29.94,10,10,10,23,14,31,0.00,0,,197
2013-11-14,60,44,28,39,32,26,92,65,37,29.98,29.91,29.87,10,10,10,18,5,21,0.00,0,,279
2013-11-15,58,42,26,38,32,24,92,67,41,29.89,29.74,29.54,10,10,7,28,9,32,0.00,0,,153
2013-11-16,64,51,37,43,31,15,96,57,17,29.52,29.36,29.29,10,9,4,24,10,30,0.00,0,,202
2013-11-17,54,43,32,39,33,26,92,69,46,30.07,29.69,29.38,10,10,5,22,11,29,0.09,3,Rain,290
2013-11-18,54,38,22,27,24,21,88,59,29,30.24,30.17,30.09,10,10,10,15,6,19,0.00,0,,182
2013-11-19,62,49,35,31,26,22,59,44,29,30.10,29.92,29.78,10,10,2,31,18,40,0.00,0,,178
2013-11-20,58,46,33,34,30,24,76,58,39,30.03,29.80,29.72,10,10,10,28,12,35,0.00,0,,197
2013-11-21,33,25,17,26,15,7,80,70,59,30.69,30.39,30.04,10,7,2,37,24,49,0.01,8,Snow,338
2013-11-22,35,20,5,13,6,1,80,53,25,30.76,30.69,30.62,10,10,10,22,9,26,0.00,0,,289
2013-11-23,22,16,10,13,4,0,80,61,41,30.95,30.84,30.75,10,10,10,17,7,24,0.00,2,,26
2013-11-24,40,26,12,18,12,2,67,54,40,30.72,30.41,30.15,10,10,10,30,16,37,0.00,1,,187
2013-11-25,45,36,27,25,23,18,85,65,45,30.25,30.17,30.10,10,10,10,23,13,28,0.00,2,,288
2013-11-26,29,20,11,22,13,5,81,58,35,30.50,30.38,30.22,10,10,10,29,14,36,0.00,3,,323
2013-11-27,38,22,6,22,12,2,83,61,38,30.48,30.23,30.02,10,10,10,25,11,31,0.00,0,,213
2013-11-28,33,23,13,20,16,11,88,73,58,30.51,30.38,30.13,10,10,10,25,11,31,0.00,4,,1
2013-11-29,45,29,13,25,19,11,88,67,45,30.49,30.29,30.12,10,10,10,22,10,26,0.00,0,,162
2013-11-30,57,40,23,29,25,20,88,60,32,30.19,30.13,30.08,10,10,8,12,4,13,0.00,0,,316